Mountain View, MO

11:50 AM CST on January 26, 2015 (GMT -0600)
Pierce Township Texas County | Change Station
CLOSE
Current Station
Personal Weather Station
Location: Willow Springs, MO
Elevation: 1364 ft
Nearby Weather Stations

Elev 1364 ft 37.08 °N, 91.91 °W | Updated 4 minutes ago

Partly Cloudy
Partly Cloudy
46.6 °F
Feels Like 47 °F
N
2.2
Wind Variable Wind from SW

Today
High -- | Low -- °F
--% Chance of Precip.
Yesterday
High -- | Low -- °F
Precip. -- in
7:13 AM 5:25 PM
Waxing Crescent, 45% visible
Pressure 30.09 in
Visibility 10.0 miles
Clouds Few 2100 ft
Windchill 47 °F
Dew Point 34 °F
Humidity 62%
Rainfall 0.00 in
Snow Depth Not available.
UV 3 out of 12
Pollen .70 out of 12
Air Quality Not available.
Flu Activity Not available.
METAR KUNO 261653Z AUTO 29007KT 10SM FEW021 04/M02 A3006 RMK AO2 SLP188 T00391022

More Conditions Fewer Conditions

Pressure 30.09 in
Visibility 10.0 miles
Clouds Few 2100 ft
Windchill 47 °F
Dew Point 34 °F
Humidity 62%
Rainfall 0.00 in
Snow Depth Not available.
UV 3 out of 12
Pollen .70 out of 12
Air Quality Not available.
Flu Activity Not available.
METAR KUNO 261653Z AUTO 29007KT 10SM FEW021 04/M02 A3006 RMK AO2 SLP188 T00391022

More Conditions Fewer Conditions

10-Day Weather Forecast

Almanac

Astronomy

Jan. 26, 2015 Rise Set
Actual Time
Civil Twilight
Nautical Twilight
Astronomical Twilight
Moon
Length of Visible Light
Length of Day
Tomorrow will be .
, % of the Moon is Illuminated

Today's Extremes

State Highs State Lows

Community

WunderPhotos

Upload Photos

1,790,301 photos uploaded!

WunderBlogs® & News

Nearby

Air Quality

  Air Quality AQ Index Pollutant
Not available.

Snow Depth

Station Depth Elevation

Earthquake Activity

City Distance Mag. Time & Date
Minimum magnitude displayed is 2.5.

Coastal Water Temperatures

Place Temperature

Nearby Weather Stations